Time;durP1;ratioP1;P1;durP2;ratioP2;P2;SDS_P1;SDS_P2;PMS_P1;PMS_P2;Temp;Humidity;BMP_temperature;BMP_pressure;BME280_temperature;BME280_humidity;BME280_pressure;Samples;Min_cycle;Max_cycle;Signal;HPM_P1;HPM_P2
2022/09/17 00:00:04;;;;;;;7.00;2.60;;;18.90;99.90;;;19.30;72.89;94150.19;6177971;23;20433;-57
2022/09/17 00:02:33;;;;;;;11.20;2.80;;;18.90;99.90;;;19.29;72.52;94135.25;6177967;23;20477;-56
2022/09/17 00:05:00;;;;;;;7.67;3.60;;;18.90;99.90;;;19.28;72.94;94134.41;6177556;23;20458;-57
2022/09/17 00:07:28;;;;;;;7.23;3.80;;;18.90;99.90;;;19.27;72.74;94127.44;6178835;23;20406;-56
2022/09/17 00:09:55;;;;;;;13.17;3.57;;;18.80;99.90;;;19.24;72.53;94121.69;6177669;23;20512;-54
2022/09/17 00:12:23;;;;;;;17.50;4.77;;;18.80;99.90;;;19.20;72.63;94123.97;6178016;23;20428;-55
2022/09/17 00:14:50;;;;;;;5.70;3.53;;;18.80;99.90;;;19.16;72.49;94123.59;6177310;23;20425;-56
2022/09/17 00:17:17;;;;;;;7.77;3.53;;;18.80;99.90;;;19.14;72.83;94111.50;6177618;23;20412;-58
2022/09/17 00:19:46;;;;;;;7.93;3.43;;;18.80;99.90;;;19.12;72.67;94116.22;6177871;23;20492;-57
2022/09/17 00:22:13;;;;;;;6.57;3.60;;;18.70;99.90;;;19.10;72.56;94104.94;6178353;23;20405;-56
2022/09/17 00:24:40;;;;;;;7.60;3.07;;;18.70;99.90;;;19.08;72.35;94107.00;6177310;23;20453;-57
2022/09/17 00:27:08;;;;;;;8.80;3.80;;;18.70;99.90;;;19.08;72.85;94117.66;6177816;23;20989;-56
2022/09/17 00:29:35;;;;;;;3.50;3.20;;;18.70;99.90;;;19.10;72.52;94115.59;6177592;23;20484;-54
2022/09/17 00:32:03;;;;;;;6.93;3.07;;;18.70;99.90;;;19.12;72.94;94113.56;6177939;23;20492;-54
2022/09/17 00:34:30;;;;;;;6.03;3.10;;;18.70;99.90;;;19.13;72.81;94115.19;6177642;23;20445;-57
2022/09/17 00:36:59;;;;;;;6.07;3.70;;;18.70;99.90;;;19.14;73.15;94119.50;6177744;23;20416;-54
2022/09/17 00:39:26;;;;;;;12.63;3.80;;;18.70;99.90;;;19.16;73.01;94128.09;6177586;23;20965;-56
2022/09/17 00:41:53;;;;;;;3.37;2.70;;;18.70;99.90;;;19.16;73.50;94109.44;6177313;23;20412;-53
2022/09/17 00:44:45;;;;;;;6.13;3.23;;;18.70;99.90;;;19.16;73.77;94120.94;6177690;23;20813;-54
2022/09/17 00:47:22;;;;;;;3.40;2.70;;;18.80;99.90;;;19.16;72.85;94136.94;6172243;23;20430;-55
2022/09/17 00:49:51;;;;;;;5.10;3.83;;;18.80;99.90;;;19.19;73.38;94134.84;6177490;23;20428;-55
2022/09/17 00:52:22;;;;;;;16.07;4.13;;;18.80;99.90;;;19.17;73.50;94140.41;6177439;23;20927;-55
2022/09/17 00:54:54;;;;;;;5.53;3.77;;;18.80;99.90;;;19.19;73.38;94148.19;6177854;23;20418;-55
2022/09/17 00:57:21;;;;;;;7.40;4.17;;;18.80;99.90;;;19.19;73.08;94145.53;6178043;23;20788;-55
2022/09/17 00:59:49;;;;;;;10.80;3.60;;;18.80;99.90;;;19.18;73.22;94144.72;6177742;23;20418;-55
2022/09/17 01:02:16;;;;;;;5.70;3.20;;;18.80;99.90;;;19.18;72.96;94139.38;6177177;23;20398;-55
2022/09/17 01:04:43;;;;;;;10.50;3.10;;;18.80;99.90;;;19.17;72.91;94138.53;6177173;23;20564;-56
2022/09/17 01:07:18;;;;;;;10.53;3.70;;;18.80;99.90;;;19.15;73.02;94126.47;6178050;23;20434;-57
2022/09/17 01:09:53;;;;;;;6.30;3.37;;;18.70;99.90;;;19.15;72.33;94129.13;6177217;23;20491;-55
2022/09/17 01:12:48;;;;;;;4.30;3.70;;;18.70;99.90;;;19.12;72.89;94113.56;6177387;23;20456;-57
2022/09/17 01:15:24;;;;;;;7.20;3.10;;;18.70;99.90;;;19.12;72.54;94118.91;6177703;23;20426;-56
2022/09/17 01:18:07;;;;;;;5.03;3.60;;;18.70;99.90;;;19.11;72.64;94114.59;6177702;23;20405;-57
2022/09/17 01:21:33;;;;;;;6.03;2.80;;;18.70;99.90;;;19.12;72.98;94134.91;6177374;23;20433;-55
2022/09/17 01:24:46;;;;;;;6.13;3.50;;;18.70;99.90;;;19.09;73.27;94125.47;6177687;23;20426;-57
2022/09/17 01:27:39;;;;;;;4.07;2.43;;;18.70;99.90;;;19.08;72.91;94115.00;6177677;23;20746;-55
2022/09/17 01:30:30;;;;;;;4.90;2.53;;;18.70;99.90;;;19.07;72.92;94106.19;6177599;23;20425;-56
2022/09/17 01:33:00;;;;;;;4.50;3.83;;;18.70;99.90;;;19.05;72.25;94100.25;6177589;23;20398;-56
2022/09/17 01:35:34;;;;;;;14.60;4.07;;;18.60;99.90;;;19.03;72.21;94083.66;6177464;23;20476;-54
2022/09/17 01:38:05;;;;;;;21.53;3.70;;;18.60;99.90;;;18.99;72.22;94077.09;6177397;23;20397;-57
2022/09/17 01:40:37;;;;;;;28.73;4.53;;;18.60;99.90;;;18.95;72.63;94084.72;6176301;23;20429;-56
2022/09/17 01:43:07;;;;;;;5.57;3.77;;;18.60;99.90;;;18.95;73.43;94099.91;6176840;23;20390;-58
2022/09/17 01:45:38;;;;;;;16.73;2.90;;;18.60;99.90;;;18.96;73.27;94115.66;6176611;23;20453;-56
2022/09/17 01:48:07;;;;;;;11.13;2.10;;;18.60;99.90;;;18.96;73.07;94137.00;6176894;23;20563;-55
2022/09/17 01:50:39;;;;;;;10.47;2.60;;;18.60;99.90;;;18.96;73.12;94126.34;6177158;23;20425;-55
2022/09/17 01:53:06;;;;;;;7.47;4.43;;;18.60;99.90;;;18.97;73.75;94119.16;6176834;23;20390;-57
2022/09/17 01:55:37;;;;;;;11.10;3.43;;;18.60;99.90;;;18.95;73.67;94124.69;6176642;23;20426;-57
2022/09/17 01:58:07;;;;;;;4.63;2.90;;;18.60;99.90;;;18.91;73.74;94112.00;6177296;23;20405;-55
2022/09/17 02:00:36;;;;;;;6.60;3.20;;;18.50;99.90;;;18.87;73.81;94079.63;6176480;23;20927;-55
2022/09/17 02:03:07;;;;;;;3.60;3.17;;;18.50;99.90;;;18.85;73.25;94047.03;6177094;23;20843;-53
2022/09/17 02:05:37;;;;;;;5.67;4.17;;;18.50;99.90;;;18.82;73.24;94044.75;6176285;23;20452;-57
2022/09/17 02:08:06;;;;;;;7.87;3.87;;;18.40;99.90;;;18.79;73.82;94043.34;6177546;23;20793;-56
2022/09/17 02:10:36;;;;;;;8.47;4.40;;;18.40;99.90;;;18.80;73.75;94020.97;6176728;23;20417;-54
2022/09/17 02:13:07;;;;;;;3.30;3.07;;;18.40;99.90;;;18.79;73.45;93987.41;6177190;23;20492;-57
2022/09/17 02:15:39;;;;;;;8.53;3.87;;;18.40;99.90;;;18.73;73.90;93992.75;6176260;23;20426;-55
2022/09/17 02:18:08;;;;;;;4.63;3.40;;;18.30;99.90;;;18.68;74.55;94011.22;6176686;23;20615;-54
2022/09/17 02:20:40;;;;;;;7.13;2.90;;;18.30;99.90;;;18.68;74.40;94000.56;6176875;23;20503;-56
2022/09/17 02:23:12;;;;;;;14.67;4.07;;;18.30;99.90;;;18.68;74.52;93997.91;6176804;23;20386;-57
2022/09/17 02:25:42;;;;;;;4.87;3.33;;;18.30;99.90;;;18.68;74.81;93989.91;6176448;23;20456;-57
2022/09/17 02:28:17;;;;;;;8.73;4.20;;;18.30;99.90;;;18.66;75.28;94034.59;6176489;23;20402;-54
2022/09/17 02:30:45;;;;;;;7.53;4.00;;;18.30;99.90;;;18.61;75.03;94062.66;6176694;23;20420;-57
2022/09/17 02:33:13;;;;;;;4.43;3.63;;;18.20;99.90;;;18.59;75.52;94086.03;6176882;23;20397;-55
2022/09/17 02:35:42;;;;;;;13.43;3.90;;;18.20;99.90;;;18.60;75.37;94058.34;6176085;23;20757;-57
2022/09/17 02:38:09;;;;;;;18.57;3.53;;;18.20;99.90;;;18.58;74.92;93980.50;6176492;23;20926;-54
2022/09/17 02:40:41;;;;;;;8.10;4.03;;;18.20;99.90;;;18.55;74.82;94018.22;6176236;23;20483;-58
2022/09/17 02:43:15;;;;;;;4.73;3.93;;;18.10;99.90;;;18.48;75.40;93993.44;6176635;23;20408;-54
2022/09/17 02:45:52;;;;;;;10.77;4.23;;;18.20;99.90;;;18.44;75.11;94011.69;6176921;23;20464;-57
2022/09/17 02:49:01;;;;;;;7.23;4.10;;;18.10;99.90;;;18.42;75.79;94002.31;6176871;23;20748;-58
2022/09/17 02:51:33;;;;;;;12.10;3.70;;;18.10;99.90;;;18.40;76.49;93975.06;6107892;23;20509;-55
2022/09/17 02:54:08;;;;;;;4.83;4.43;;;18.00;99.90;;;18.41;76.43;93963.38;6176581;23;20432;-56
2022/09/17 02:56:45;;;;;;;9.80;3.43;;;18.10;99.90;;;18.40;76.39;93935.13;6176681;23;20483;-56
2022/09/17 02:59:18;;;;;;;9.73;5.40;;;18.00;99.90;;;18.39;76.06;93966.25;6176672;23;20417;-56
2022/09/17 03:01:49;;;;;;;9.60;4.20;;;18.00;99.90;;;18.40;75.83;93970.56;6176726;23;20429;-57
2022/09/17 03:04:16;;;;;;;5.87;4.57;;;18.00;99.90;;;18.39;76.33;93970.78;6176774;23;20409;-55
2022/09/17 03:06:45;;;;;;;5.70;3.50;;;18.00;99.90;;;18.35;76.34;93985.53;6176318;23;20973;-56
2022/09/17 03:09:13;;;;;;;12.03;4.17;;;18.00;99.90;;;18.35;76.59;93996.16;6176680;23;20749;-54
2022/09/17 03:11:41;;;;;;;5.33;3.43;;;17.90;99.90;;;18.38;76.30;93988.56;6176137;23;20501;-54
2022/09/17 03:14:08;;;;;;;6.70;3.67;;;18.00;99.90;;;18.40;76.33;93988.38;6176023;23;20476;-57
2022/09/17 03:16:35;;;;;;;13.13;5.13;;;18.00;99.90;;;18.41;76.63;93968.72;6175445;23;20413;-55
2022/09/17 03:19:04;;;;;;;7.10;3.40;;;18.00;99.90;;;18.43;75.99;93967.47;6176222;23;20428;-55
2022/09/17 03:21:31;;;;;;;7.20;3.23;;;18.00;99.90;;;18.41;76.23;93958.06;6176030;23;20405;-56
2022/09/17 03:23:59;;;;;;;12.10;3.53;;;18.10;99.90;;;18.38;76.44;93932.66;6176613;23;20517;-57
2022/09/17 03:26:26;;;;;;;4.53;4.13;;;18.00;99.90;;;18.35;76.23;93916.31;6176391;23;20452;-57
2022/09/17 03:28:53;;;;;;;9.27;3.50;;;18.00;99.90;;;18.33;76.75;93918.38;6176560;23;21375;-56
2022/09/17 03:31:21;;;;;;;9.13;4.50;;;18.00;99.90;;;18.28;76.46;93919.81;6175996;23;20398;-55
2022/09/17 03:33:49;;;;;;;7.37;3.50;;;17.90;99.90;;;18.22;76.69;93928.63;6175879;23;20856;-55
2022/09/17 03:36:17;;;;;;;5.70;3.93;;;17.90;99.90;;;18.19;76.28;93933.56;6175792;23;20742;-58
2022/09/17 03:38:44;;;;;;;8.80;4.10;;;17.90;99.90;;;18.15;76.42;93950.97;6176439;23;20434;-56
2022/09/17 03:41:12;;;;;;;4.47;4.07;;;17.80;99.90;;;18.14;76.90;93957.31;6176063;23;20475;-53
2022/09/17 03:43:39;;;;;;;9.93;4.90;;;17.80;99.90;;;18.13;77.48;93959.16;6176007;23;20412;-55
2022/09/17 03:46:07;;;;;;;7.80;3.70;;;17.80;99.90;;;18.15;76.90;93953.63;6176052;23;20477;-58
2022/09/17 03:48:35;;;;;;;4.40;3.83;;;17.80;99.90;;;18.17;77.42;93946.25;6176245;23;20527;-55
2022/09/17 03:51:04;;;;;;;4.93;3.90;;;17.80;99.90;;;18.20;77.46;93940.50;6176146;23;20496;-56
2022/09/17 03:53:33;;;;;;;5.13;4.07;;;17.80;99.90;;;18.26;76.96;93937.00;6176065;23;20452;-54
2022/09/17 03:56:00;;;;;;;12.63;4.47;;;17.90;99.90;;;18.27;77.33;93949.31;6175744;23;20402;-54
2022/09/17 03:58:27;;;;;;;9.83;3.80;;;17.90;99.90;;;18.28;77.26;93946.44;6176550;23;20733;-54
2022/09/17 04:00:56;;;;;;;10.40;3.97;;;17.90;99.90;;;18.32;77.42;93959.31;6178561;23;20414;-57
2022/09/17 04:03:24;;;;;;;17.33;4.17;;;17.90;99.90;;;18.35;77.79;93973.03;6177913;23;20464;-57
2022/09/17 04:05:51;;;;;;;8.00;3.90;;;18.00;99.90;;;18.40;77.92;93967.06;6177999;23;20503;-58
2022/09/17 04:08:18;;;;;;;4.90;3.30;;;18.00;99.90;;;18.44;77.80;93969.09;6177590;23;20459;-54
2022/09/17 04:10:47;;;;;;;6.63;4.30;;;18.10;99.90;;;18.50;77.91;93993.25;6177630;23;20402;-57
2022/09/17 04:13:15;;;;;;;11.40;4.30;;;18.10;99.90;;;18.54;78.07;93997.94;6177800;23;20920;-54
2022/09/17 04:15:42;;;;;;;6.30;4.30;;;18.10;99.90;;;18.59;78.08;94006.13;6177567;23;20417;-55
2022/09/17 04:18:10;;;;;;;12.03;4.00;;;18.20;99.90;;;18.63;77.46;94019.84;6177737;23;20410;-56
2022/09/17 04:20:37;;;;;;;8.50;3.97;;;18.20;99.90;;;18.67;77.87;94030.88;6178274;23;20787;-56
2022/09/17 04:23:05;;;;;;;6.77;4.53;;;18.30;99.90;;;18.71;77.28;94032.91;6177602;23;20410;-56
2022/09/17 04:25:33;;;;;;;8.60;4.07;;;18.30;99.90;;;18.75;77.91;94050.13;6177513;23;20445;-57
2022/09/17 04:28:02;;;;;;;12.20;4.97;;;18.30;99.90;;;18.81;77.70;94053.78;6178241;23;20401;-56
2022/09/17 04:30:29;;;;;;;9.90;4.00;;;18.40;99.90;;;18.85;77.49;94055.03;6178435;23;20493;-56
2022/09/17 04:32:57;;;;;;;8.03;3.83;;;18.50;99.90;;;18.92;77.45;94055.00;6175909;23;20521;-53
2022/09/17 04:35:24;;;;;;;13.63;3.87;;;18.50;99.90;;;18.97;77.30;94065.84;6178047;23;20433;-56
2022/09/17 04:37:54;;;;;;;12.40;3.53;;;18.60;99.90;;;19.01;76.41;94075.06;6177182;23;20957;-55
2022/09/17 04:40:22;;;;;;;6.40;2.97;;;18.60;99.90;;;19.03;76.82;94082.84;6177790;23;20425;-56
2022/09/17 04:42:52;;;;;;;6.93;4.00;;;18.60;99.90;;;19.05;76.99;94094.09;6177128;23;20401;-57
2022/09/17 04:45:21;;;;;;;8.80;3.70;;;18.60;99.90;;;19.10;76.84;94094.28;6177985;23;20425;-55
2022/09/17 04:47:49;;;;;;;9.47;3.93;;;18.70;99.90;;;19.17;76.39;94100.41;6177096;23;20538;-55
2022/09/17 04:50:17;;;;;;;11.07;2.80;;;18.80;99.90;;;19.24;77.18;94109.22;6177461;23;20426;-57
2022/09/17 04:52:45;;;;;;;7.27;2.70;;;18.80;99.90;;;19.28;77.15;94121.06;6177515;23;20435;-56
2022/09/17 04:55:12;;;;;;;4.67;2.60;;;18.90;99.90;;;19.33;76.63;94137.28;6177819;23;20946;-56
2022/09/17 04:57:39;;;;;;;4.77;2.80;;;18.90;99.90;;;19.37;76.58;94142.19;6177505;23;20406;-55
2022/09/17 05:00:08;;;;;;;5.73;2.60;;;18.90;99.90;;;19.41;76.77;94148.69;6177011;23;20421;-56
2022/09/17 05:02:37;;;;;;;14.60;2.50;;;19.00;99.90;;;19.42;76.47;94140.50;6177383;23;20410;-55
2022/09/17 05:05:05;;;;;;;6.00;2.90;;;19.00;99.90;;;19.46;76.52;94135.56;6177286;23;20953;-56
2022/09/17 05:07:32;;;;;;;10.13;2.83;;;19.10;99.90;;;19.51;77.01;94109.06;6176328;23;20449;-55
2022/09/17 05:09:59;;;;;;;8.47;2.30;;;19.10;99.90;;;19.55;76.86;94101.44;6177034;23;20507;-55
2022/09/17 05:12:27;;;;;;;5.93;2.47;;;19.20;99.90;;;19.59;76.26;94095.47;6176751;23;20477;-57
2022/09/17 05:14:54;;;;;;;8.00;2.57;;;19.20;99.90;;;19.66;76.38;94098.13;6176743;23;20433;-56
2022/09/17 05:17:21;;;;;;;16.10;2.57;;;19.20;99.90;;;19.72;75.93;94099.91;6176388;23;20402;-56
2022/09/17 05:19:50;;;;;;;9.80;2.50;;;19.30;99.90;;;19.76;75.78;94086.97;6177008;23;20533;-57
2022/09/17 05:22:18;;;;;;;8.90;2.47;;;19.30;99.90;;;19.78;75.14;94085.72;6176432;23;20405;-56
2022/09/17 05:24:45;;;;;;;8.30;2.30;;;19.40;99.90;;;19.81;74.93;94084.47;6176843;23;20421;-53
2022/09/17 05:27:12;;;;;;;5.83;2.13;;;19.40;99.90;;;19.84;75.61;94086.72;6176843;23;20992;-54
2022/09/17 05:29:39;;;;;;;12.13;2.50;;;19.40;99.90;;;19.93;75.62;94088.09;6177329;23;20749;-56
2022/09/17 05:32:07;;;;;;;12.13;2.67;;;19.50;99.90;;;19.97;75.72;94081.28;6177024;23;20428;-57
2022/09/17 05:34:34;;;;;;;11.73;3.40;;;19.50;99.90;;;20.00;75.14;94088.88;6176944;23;20770;-54
2022/09/17 05:37:03;;;;;;;7.53;2.60;;;19.60;99.90;;;20.02;75.68;94105.47;6176863;23;20752;-56
2022/09/17 05:39:30;;;;;;;15.10;2.77;;;19.60;99.90;;;20.02;76.07;94089.44;6176791;23;20425;-55
2022/09/17 05:41:57;;;;;;;5.87;2.20;;;19.60;99.90;;;20.03;75.69;94098.28;6177324;23;20409;-55
2022/09/17 05:44:25;;;;;;;2.87;2.50;;;19.60;99.90;;;20.04;75.85;94095.38;6177085;23;20794;-55
2022/09/17 05:46:53;;;;;;;5.87;2.60;;;19.60;99.90;;;20.04;76.19;94099.91;6176192;23;20445;-55
2022/09/17 05:49:20;;;;;;;15.57;2.93;;;19.60;99.90;;;20.05;75.59;94091.69;6176350;23;20958;-55
2022/09/17 05:51:49;;;;;;;10.37;2.70;;;19.60;99.90;;;20.05;75.79;94089.03;6177106;23;20410;-54
2022/09/17 05:54:18;;;;;;;10.77;3.13;;;19.70;99.90;;;20.06;75.60;94079.97;6176493;23;20418;-54
2022/09/17 05:56:45;;;;;;;5.17;2.33;;;19.60;99.90;;;20.08;75.91;94089.59;6176622;23;20736;-56
2022/09/17 05:59:14;;;;;;;8.60;2.63;;;19.60;99.90;;;20.09;75.53;94094.72;6176498;23;20496;-57
2022/09/17 06:01:41;;;;;;;26.77;3.40;;;19.70;99.90;;;20.10;75.76;94093.69;6175580;23;20406;-57
2022/09/17 06:04:09;;;;;;;9.53;2.77;;;19.70;99.90;;;20.13;75.59;94092.47;6176098;23;20426;-56
2022/09/17 06:06:37;;;;;;;6.60;2.60;;;19.70;99.90;;;20.13;75.90;94106.63;6177180;23;20445;-58
2022/09/17 06:09:05;;;;;;;13.87;3.30;;;19.70;99.90;;;20.14;76.13;94131.44;6176140;23;20429;-56
2022/09/17 06:11:33;;;;;;;4.43;2.70;;;19.70;99.90;;;20.20;75.90;94135.94;6176344;23;20926;-55
2022/09/17 06:14:01;;;;;;;9.60;2.63;;;19.70;99.90;;;20.21;75.24;94137.56;6176254;23;20417;-57
2022/09/17 06:16:28;;;;;;;3.57;2.10;;;19.80;99.90;;;20.17;75.58;94144.38;6176280;23;20401;-56
2022/09/17 06:18:55;;;;;;;9.63;3.40;;;19.80;99.90;;;20.15;75.72;94149.94;6176306;23;20492;-57
2022/09/17 06:21:23;;;;;;;7.07;2.20;;;19.80;99.90;;;20.16;75.12;94148.91;6176734;23;20401;-56
2022/09/17 06:23:50;;;;;;;8.43;3.50;;;19.80;99.90;;;20.17;75.36;94163.06;6175691;23;20993;-55
2022/09/17 06:26:17;;;;;;;9.20;3.70;;;19.70;99.90;;;20.21;75.16;94180.28;6176377;23;20449;-57
2022/09/17 06:28:46;;;;;;;5.93;2.60;;;19.80;99.90;;;20.26;74.81;94180.47;6176853;23;20422;-54
2022/09/17 06:31:13;;;;;;;6.83;2.10;;;19.80;99.90;;;20.28;75.08;94185.56;6176389;23;20468;-57
2022/09/17 06:33:40;;;;;;;4.40;1.90;;;19.80;99.90;;;20.27;74.92;94179.44;6176392;23;20430;-56
2022/09/17 06:36:10;;;;;;;5.87;2.40;;;19.80;99.90;;;20.25;74.93;94181.50;6176040;23;20389;-57
2022/09/17 06:38:38;;;;;;;13.90;2.20;;;19.80;99.90;;;20.20;75.23;94166.13;6176050;23;20518;-55
2022/09/17 06:41:05;;;;;;;10.63;2.83;;;19.80;99.90;;;20.16;74.93;94164.13;6172211;23;20619;-57
2022/09/17 06:43:33;;;;;;;8.77;2.33;;;19.80;99.90;;;20.12;75.73;94157.56;6176453;23;20402;-55
2022/09/17 06:46:02;;;;;;;10.17;3.33;;;19.70;99.90;;;20.08;75.36;94143.84;6175785;23;20798;-56
2022/09/17 06:48:30;;;;;;;8.00;3.13;;;19.70;99.90;;;20.08;75.37;94135.00;6175808;23;20915;-55
2022/09/17 06:51:02;;;;;;;4.73;2.80;;;19.70;99.90;;;20.06;75.21;94133.38;6175997;23;20417;-56
2022/09/17 06:53:30;;;;;;;5.27;2.57;;;19.70;99.90;;;20.04;75.36;94138.09;6176717;23;20674;-56
2022/09/17 06:55:58;;;;;;;9.70;2.80;;;19.60;99.90;;;20.02;74.71;94134.84;6176618;23;20786;-58
2022/09/17 06:58:25;;;;;;;5.67;2.90;;;19.60;99.90;;;19.99;74.70;94127.25;6175678;23;20464;-55
2022/09/17 07:00:52;;;;;;;4.70;2.37;;;19.60;99.90;;;19.97;74.25;94121.31;6176789;23;20748;-59
2022/09/17 07:03:21;;;;;;;9.33;2.10;;;19.60;99.90;;;19.97;74.44;94120.50;6176005;23;20969;-56
2022/09/17 07:05:48;;;;;;;3.80;2.53;;;19.60;99.90;;;19.97;74.34;94109.81;6176167;23;20406;-55
2022/09/17 07:08:16;;;;;;;4.30;2.63;;;19.60;99.90;;;19.99;74.60;94091.75;6176106;23;20472;-57
2022/09/17 07:10:43;;;;;;;10.73;2.87;;;19.60;99.90;;;20.04;74.81;94079.38;6176107;23;20826;-53
2022/09/17 07:13:11;;;;;;;7.43;3.40;;;19.60;99.90;;;20.14;74.45;94084.22;6175678;23;20414;-54
2022/09/17 07:15:38;;;;;;;13.57;3.17;;;19.70;99.90;;;20.27;74.39;94072.59;6175572;23;20527;-57
2022/09/17 07:18:08;;;;;;;6.60;3.20;;;19.80;99.90;;;20.40;74.31;94056.47;6173794;23;20401;-55
2022/09/17 07:20:37;;;;;;;11.10;2.70;;;19.90;99.90;;;20.67;74.07;94042.06;6174026;23;20434;-56
2022/09/17 07:23:05;;;;;;;10.17;4.50;;;20.20;99.90;;;20.93;73.62;94012.31;6173656;23;20401;-55
2022/09/17 07:25:32;;;;;;;6.93;3.70;;;20.40;99.90;;;21.27;73.74;94046.63;6173622;23;20421;-55
2022/09/17 07:27:59;;;;;;;10.83;4.50;;;20.80;99.90;;;21.76;72.99;94076.84;6173764;23;20445;-55
2022/09/17 07:30:26;;;;;;;23.43;5.43;;;21.20;99.90;;;22.37;71.98;94076.75;6173848;23;20425;-56
2022/09/17 07:32:54;;;;;;;11.53;4.70;;;21.70;99.90;;;22.81;69.14;94071.81;6175170;23;20931;-56
2022/09/17 07:35:21;;;;;;;7.00;4.10;;;22.20;99.90;;;22.94;69.15;94065.38;6176723;23;20428;-56
2022/09/17 07:37:50;;;;;;;8.83;4.20;;;22.40;99.90;;;23.09;68.69;94049.63;6177430;23;20413;-55
2022/09/17 07:40:17;;;;;;;11.30;3.43;;;22.70;99.90;;;23.65;68.72;94053.63;6177841;23;20425;-56
2022/09/17 07:42:44;;;;;;;5.93;3.23;;;23.10;99.90;;;24.31;66.53;94064.69;6177975;23;20484;-56
2022/09/17 07:45:12;;;;;;;16.23;2.80;;;23.70;99.90;;;24.87;65.57;94056.63;6178064;23;20433;-58
2022/09/17 07:47:40;;;;;;;4.13;2.73;;;24.30;99.90;;;25.19;63.58;94053.25;6177471;23;20451;-56
2022/09/17 07:50:09;;;;;;;7.23;2.43;;;24.60;99.90;;;25.32;63.09;94047.53;6177377;23;20758;-56
2022/09/17 07:52:36;;;;;;;3.23;2.33;;;24.80;99.90;;;25.33;62.22;94046.47;6177515;23;20484;-55
2022/09/17 07:55:06;;;;;;;5.90;2.83;;;24.90;99.90;;;25.30;62.31;94057.75;6177366;23;20961;-57
2022/09/17 07:57:33;;;;;;;11.67;2.60;;;24.90;99.90;;;25.28;61.94;94038.28;6178007;23;20475;-57
2022/09/17 08:00:01;;;;;;;19.63;2.10;;;24.90;99.90;;;25.48;62.26;94045.81;6177211;23;20421;-56
2022/09/17 08:02:28;;;;;;;8.10;2.30;;;25.00;99.90;;;25.87;61.94;94048.38;6178021;23;20912;-56
2022/09/17 08:04:56;;;;;;;6.80;2.33;;;25.30;99.90;;;26.37;61.59;94027.50;6177380;23;20429;-56
2022/09/17 08:07:23;;;;;;;8.33;1.73;;;25.70;99.90;;;26.90;60.02;94024.84;6178347;23;20476;-55
2022/09/17 08:09:51;;;;;;;9.93;1.80;;;26.30;99.50;;;27.36;58.34;94019.66;6178621;23;20495;-55
2022/09/17 08:12:21;;;;;;;9.33;2.50;;;26.70;98.40;;;27.76;56.85;94022.69;6177367;23;20404;-53
2022/09/17 08:14:48;;;;;;;3.87;1.97;;;27.20;96.60;;;27.93;55.56;94021.63;6177559;23;20459;-54
2022/09/17 08:17:16;;;;;;;5.50;2.13;;;27.40;95.80;;;27.97;55.88;94030.88;6177656;23;20929;-56
2022/09/17 08:19:43;;;;;;;5.20;1.80;;;27.50;95.60;;;27.94;54.93;94029.47;6177182;23;20447;-56
2022/09/17 08:22:10;;;;;;;4.50;1.50;;;27.60;94.50;;;27.76;54.69;94027.28;6177812;23;20734;-56
2022/09/17 08:24:38;;;;;;;6.60;1.87;;;27.40;93.80;;;27.62;54.34;94024.28;6177536;23;20428;-57
2022/09/17 08:27:05;;;;;;;4.70;1.60;;;27.30;93.60;;;27.64;54.83;94025.66;6177859;23;20515;-56
2022/09/17 08:29:34;;;;;;;4.07;1.27;;;27.20;93.50;;;27.71;54.17;94031.59;6177517;23;20452;-57
2022/09/17 08:32:01;;;;;;;6.60;1.83;;;27.30;93.00;;;27.86;53.65;94030.81;6177047;23;20917;-55
2022/09/17 08:34:28;;;;;;;5.57;1.70;;;27.40;92.70;;;28.01;53.11;94024.66;6176744;23;20700;-57
2022/09/17 08:36:55;;;;;;;9.60;1.30;;;27.50;92.50;;;28.12;52.78;94021.94;6178359;23;20429;-57
2022/09/17 08:39:23;;;;;;;2.57;1.00;;;27.60;92.20;;;28.20;52.96;94024.13;6177222;23;20421;-56
2022/09/17 08:41:55;;;;;;;3.83;1.30;;;27.60;91.60;;;28.25;51.88;94029.50;6177392;23;20756;-55
2022/09/17 08:44:27;;;;;;;4.33;1.37;;;27.70;91.20;;;28.29;52.10;94024.38;6177399;23;20516;-57
2022/09/17 08:47:01;;;;;;;2.30;1.10;;;27.80;90.80;;;28.29;52.12;94021.66;6177088;23;20516;-56
2022/09/17 08:49:34;;;;;;;7.70;1.37;;;27.70;90.50;;;28.23;51.89;94032.50;6177127;23;20812;-55
2022/09/17 08:52:37;;;;;;;4.93;1.80;;;27.80;90.20;;;28.09;50.94;94017.91;6177152;23;20393;-55
2022/09/17 08:55:11;;;;;;;6.13;1.83;;;27.60;89.30;;;27.91;51.29;94030.81;6112254;23;20463;-57
2022/09/17 08:57:43;;;;;;;4.47;1.20;;;27.50;88.80;;;27.70;51.51;94034.56;6177392;23;20476;-57
2022/09/17 09:00:12;;;;;;;7.93;1.67;;;27.30;89.30;;;27.42;51.84;94031.28;6176512;23;20421;-54
2022/09/17 09:02:58;;;;;;;6.23;1.27;;;27.00;89.50;;;27.11;52.47;94017.66;6176141;23;20937;-57
2022/09/17 09:05:28;;;;;;;5.30;1.87;;;26.80;89.90;;;26.82;53.14;94028.84;6177642;23;20540;-58
2022/09/17 09:07:58;;;;;;;3.53;1.30;;;26.50;90.40;;;26.57;53.52;94012.50;6177835;23;20826;-55
2022/09/17 09:10:27;;;;;;;4.10;2.10;;;26.20;90.60;;;26.31;53.97;94015.03;6177173;23;20834;-55
2022/09/17 09:12:55;;;;;;;1.77;1.47;;;25.90;90.90;;;26.07;54.17;94011.88;6177270;23;20475;-57
2022/09/17 09:15:34;;;;;;;8.23;1.73;;;25.70;91.20;;;25.84;54.48;94026.50;6175726;23;20421;-55
2022/09/17 09:18:12;;;;;;;2.30;1.40;;;25.40;91.70;;;25.60;55.14;94032.19;6177285;23;20898;-55
2022/09/17 09:20:46;;;;;;;5.27;1.70;;;25.20;92.10;;;25.38;55.86;94037.63;6177369;23;20424;-53
2022/09/17 09:23:18;;;;;;;5.57;1.33;;;25.00;92.90;;;25.18;56.84;94046.25;6177549;23;20411;-56
2022/09/17 09:25:55;;;;;;;5.30;1.77;;;24.80;93.40;;;24.98;57.75;94054.91;6177090;23;20749;-55
2022/09/17 09:28:46;;;;;;;4.33;2.07;;;24.60;94.20;;;24.75;58.59;94064.00;6176953;23;20428;-55
2022/09/17 09:31:33;;;;;;;4.67;1.97;;;24.40;94.80;;;24.55;58.96;94081.44;6176669;23;20723;-57
2022/09/17 09:34:02;;;;;;;7.00;1.77;;;24.20;95.50;;;24.36;59.60;94086.25;6176919;23;20432;-56
2022/09/17 09:36:30;;;;;;;3.23;1.93;;;24.00;96.10;;;24.21;60.26;94089.50;6177544;23;20458;-57
2022/09/17 09:39:00;;;;;;;6.30;1.50;;;23.80;96.90;;;24.05;60.82;94093.03;6178110;23;20467;-56
2022/09/17 09:41:31;;;;;;;6.17;2.20;;;23.70;97.20;;;23.90;60.87;94096.25;6177291;23;20416;-59
2022/09/17 09:44:02;;;;;;;10.20;2.03;;;23.50;97.60;;;23.74;61.13;94109.38;6178255;23;20448;-53
2022/09/17 09:47:19;;;;;;;6.27;2.63;;;23.40;98.30;;;23.53;62.66;94110.03;6178396;23;20397;-56
2022/09/17 09:50:01;;;;;;;10.43;2.63;;;23.20;98.90;;;23.39;62.93;94123.75;6177782;23;20457;-56
2022/09/17 09:52:43;;;;;;;11.50;2.70;;;23.00;99.50;;;23.26;63.64;94118.66;6177975;23;20396;-55
2022/09/17 09:55:46;;;;;;;5.70;2.50;;;22.90;99.90;;;23.12;64.88;94128.81;6177958;23;20929;-56
2022/09/17 09:58:21;;;;;;;9.27;3.43;;;22.70;99.90;;;22.99;65.58;94094.16;6177303;23;20401;-57
2022/09/17 10:00:48;;;;;;;20.33;5.10;;;22.60;99.90;;;22.81;65.19;94076.38;6177047;23;20385;-56
2022/09/17 10:03:20;;;;;;;7.57;3.67;;;22.50;99.90;;;22.67;65.54;94070.44;6176725;23;20401;-53
2022/09/17 10:05:56;;;;;;;4.70;2.87;;;22.30;99.90;;;22.53;66.03;94041.19;6177462;23;20746;-54
2022/09/17 10:08:24;;;;;;;6.90;2.80;;;22.20;99.90;;;22.42;66.68;94017.09;6176966;23;20437;-56
2022/09/17 10:10:56;;;;;;;3.60;2.63;;;22.00;99.90;;;22.33;66.84;93990.66;6177044;23;20477;-57
2022/09/17 10:13:24;;;;;;;3.93;2.30;;;21.90;99.90;;;22.26;66.65;93978.41;6176639;23;20409;-55
2022/09/17 10:15:51;;;;;;;6.60;2.93;;;21.90;99.90;;;22.12;67.76;93985.84;6176524;23;20401;-55
2022/09/17 10:18:19;;;;;;;8.00;3.47;;;21.80;99.90;;;22.01;67.71;93987.50;6176279;23;20405;-56
2022/09/17 10:20:56;;;;;;;5.63;2.03;;;21.60;99.90;;;21.91;68.75;93939.06;6176129;23;20416;-57
2022/09/17 10:23:25;;;;;;;3.73;2.30;;;21.60;99.90;;;21.79;68.72;93934.50;6176163;23;20393;-57
2022/09/17 10:25:54;;;;;;;5.20;2.93;;;21.40;99.90;;;21.71;68.78;93936.75;6176574;23;20405;-57
2022/09/17 10:28:36;;;;;;;12.37;3.50;;;21.30;99.90;;;21.62;69.27;93960.34;6176333;23;20481;-53
2022/09/17 10:31:08;;;;;;;7.73;2.73;;;21.30;99.90;;;21.54;68.74;93974.88;6176523;23;20394;-54